^^
Station Historical Data
Daily Summary for April 20, 2017 Units:  English    Metric   Both
« Previous Day
Next Day »
Daily Weekly Monthly Yearly Custom
  High: Low: Average:
Temperature: 64.4 °F 45.9 °F 53.3 °F
Dew Point: 54.4 °F 44.5 °F 49.5 °F
Humidity: 97% 70% 88%
Wind Speed: 3.0mph 0.0mph 0.5mph
Wind Gust: 9.0mph - -
Wind- - WSW
Pressure: 30.24 in 30.04 in -
Precipitation: 0.18 in    
Historical Graphs
 
 
Tabular Data for April 20, 2017
Time Temperature Dew Point Pressure Wind Wind Speed Wind Gust Humidity Rainfall Rate (Hourly) Conditions
00:30 45.9 °F 44.5 °F 30.24 in Calm   1.0 mph 95% 0.00 in OVC
00:45 46.0 °F 44.6 °F 30.23 in Calm   1.0 mph 95% 0.00 in OVC
01:00 46.0 °F 44.6 °F 30.23 in Calm   1.0 mph 95% 0.01 in OVC
02:15 46.1 °F 44.7 °F 30.19 in Calm   2.0 mph 95% 0.00 in -RA
02:30 46.1 °F 44.7 °F 30.19 in Calm   1.0 mph 95% 0.00 in -RA
02:45 46.3 °F 45.2 °F 30.18 in Calm   2.0 mph 96% 0.00 in -RA
03:00 46.3 °F 45.2 °F 30.18 in Calm   1.0 mph 96% 0.00 in -RA
03:15 46.3 °F 45.2 °F 30.18 in Calm     96% 0.00 in OVC
03:30 46.5 °F 45.4 °F 30.17 in Calm   1.0 mph 96% 0.00 in OVC
03:45 46.5 °F 45.4 °F 30.16 in Calm     96% 0.01 in RA
04:00 46.6 °F 45.5 °F 30.16 in Calm   1.0 mph 96% 0.01 in OVC
04:15 46.6 °F 45.5 °F 30.16 in Calm   1.0 mph 96% 0.03 in -RA
04:30 46.7 °F 45.6 °F 30.15 in Calm   1.0 mph 96% 0.00 in -RA
04:45 46.6 °F 45.5 °F 30.13 in Calm   1.0 mph 96% 0.00 in -RA
05:00 46.7 °F 45.6 °F 30.13 in Calm   1.0 mph 96% 0.00 in -RA
05:15 46.7 °F 45.6 °F 30.13 in Calm   1.0 mph 96% 0.00 in CLR
05:30 46.7 °F 45.7 °F 30.13 in Calm   1.0 mph 96% 0.00 in CLR
05:45 46.7 °F 45.6 °F 30.12 in Calm   1.0 mph 96% 0.00 in CLR
06:00 46.7 °F 45.6 °F 30.12 in Calm   2.0 mph 96% 0.00 in CLR
06:15 46.7 °F 45.6 °F 30.12 in Calm   2.0 mph 96% 0.00 in CLR
06:30 46.7 °F 45.6 °F 30.13 in Calm   1.0 mph 96% 0.01 in RA
06:45 46.8 °F 45.7 °F 30.14 in Calm   1.0 mph 96% 0.00 in
07:00 47.0 °F 45.9 °F 30.15 in Calm     96% 0.01 in
07:15 47.1 °F 46.0 °F 30.15 in Calm     96% 0.01 in RA
07:30 47.2 °F 46.1 °F 30.15 in Calm   1.0 mph 96% 0.03 in RA
07:45 47.3 °F 46.2 °F 30.15 in Calm   1.0 mph 96% 0.02 in RA
08:00 47.6 °F 46.5 °F 30.15 in Calm     96% 0.02 in RA
08:15 47.9 °F 47.1 °F 30.15 in Calm     97% 0.00 in -RA
08:30 48.0 °F 46.9 °F 30.14 in Calm   1.0 mph 96% 0.01 in -RA
08:45 48.0 °F 46.9 °F 30.15 in Calm     96% 0.00 in -RA
09:00 48.3 °F 47.2 °F 30.15 in Calm   1.0 mph 96% 0.00 in -RA
09:15 48.9 °F 48.1 °F 30.15 in Calm   1.0 mph 97% 0.00 in OVC
09:30 49.0 °F 47.9 °F 30.15 in Calm   2.0 mph 96% 0.00 in OVC
09:45 49.5 °F 48.4 °F 30.15 in Calm   2.0 mph 96% 0.00 in OVC
10:00 49.9 °F 48.8 °F 30.14 in Calm   2.0 mph 96% 0.00 in OVC
10:15 50.7 °F 49.6 °F 30.15 in Calm   1.0 mph 96% 0.00 in BKN
10:30 50.8 °F 49.4 °F 30.15 in Calm   2.0 mph 95% 0.00 in BKN
10:45 51.0 °F 49.6 °F 30.15 in Calm   3.0 mph 95% 0.00 in BKN
11:00 51.7 °F 50.0 °F 30.15 in West 1.0 mph 2.0 mph 94% 0.00 in BKN
11:15 51.4 °F 49.5 °F 30.15 in West 2.0 mph 4.0 mph 93% 0.00 in BKN
11:30 51.2 °F 48.9 °F 30.14 in Calm   3.0 mph 92% 0.00 in BKN
11:45 52.8 °F 50.6 °F 30.14 in Calm   2.0 mph 92% 0.00 in BKN
12:00 53.3 °F 50.4 °F 30.13 in WNW 2.0 mph 3.0 mph 90% 0.00 in BKN
12:15 53.2 °F 50.1 °F 30.13 in Calm   4.0 mph 89% 0.00 in BKN
12:30 53.4 °F 50.2 °F 30.12 in WNW 1.0 mph 4.0 mph 89% 0.00 in BKN
12:45 53.8 °F 50.9 °F 30.12 in West 1.0 mph 3.0 mph 90% 0.00 in BKN
13:00 54.5 °F 51.3 °F 30.12 in NW 2.0 mph 4.0 mph 89% 0.00 in BKN
13:15 55.1 °F 51.6 °F 30.11 in West 2.0 mph 8.0 mph 88% 0.00 in BKN
13:30 56.9 °F 52.5 °F 30.10 in Calm   8.0 mph 85% 0.00 in BKN
13:45 57.8 °F 52.7 °F 30.10 in WNW 1.0 mph 5.0 mph 83% 0.00 in BKN
14:00 58.9 °F 53.8 °F 30.09 in NW 1.0 mph 4.0 mph 83% 0.00 in BKN
14:15 59.3 °F 52.8 °F 30.09 in NW 1.0 mph 6.0 mph 79% 0.00 in BKN
14:30 58.7 °F 52.6 °F 30.09 in NW 1.0 mph 5.0 mph 80% 0.00 in BKN
14:45 58.3 °F 52.1 °F 30.09 in West 2.0 mph 5.0 mph 80% 0.00 in BKN
15:00 58.8 °F 52.6 °F 30.08 in WNW 1.0 mph 4.0 mph 80% 0.00 in BKN
15:15 59.4 °F 52.9 °F 30.07 in Calm   4.0 mph 79% 0.00 in BKN
15:30 61.1 °F 53.5 °F 30.07 in West 1.0 mph 4.0 mph 76% 0.00 in BKN
15:45 61.6 °F 54.0 °F 30.06 in West 1.0 mph 4.0 mph 76% 0.00 in BKN
16:00 62.0 °F 53.6 °F 30.06 in West 2.0 mph 6.0 mph 74% 0.00 in BKN
16:15 61.8 °F 53.4 °F 30.06 in WSW 1.0 mph 5.0 mph 74% 0.00 in FEW
16:30 62.2 °F 53.4 °F 30.05 in WSW 1.0 mph 4.0 mph 73% 0.00 in FEW
16:45 62.7 °F 53.5 °F 30.05 in West 1.0 mph 3.0 mph 72% 0.00 in FEW
17:00 63.7 °F 54.1 °F 30.05 in SW 1.0 mph 4.0 mph 71% 0.00 in FEW
17:15 62.6 °F 53.8 °F 30.05 in West 1.0 mph 4.0 mph 73% 0.00 in SCT
17:30 63.4 °F 54.3 °F 30.04 in Calm   4.0 mph 72% 0.00 in SCT
17:45 64.4 °F 54.4 °F 30.05 in SSE 2.0 mph 6.0 mph 70% 0.00 in SCT
18:00 63.5 °F 53.9 °F 30.05 in SE 1.0 mph 5.0 mph 71% 0.00 in SCT
18:15 62.6 °F 53.8 °F 30.06 in Calm   5.0 mph 73% 0.00 in BKN
18:30 61.8 °F 53.8 °F 30.05 in SE 1.0 mph 3.0 mph 75% 0.00 in BKN
18:45 61.1 °F 53.8 °F 30.05 in Calm   3.0 mph 77% 0.00 in BKN
19:00 60.2 °F 53.4 °F 30.05 in NE 1.0 mph 5.0 mph 78% 0.00 in BKN
19:15 59.8 °F 52.9 °F 30.05 in Calm   3.0 mph 78% 0.00 in SCT
19:30 59.5 °F 52.6 °F 30.05 in Calm   3.0 mph 78% 0.00 in SCT
19:45 59.1 °F 52.3 °F 30.05 in Calm   2.0 mph 78% 0.00 in SCT
20:00 58.6 °F 52.1 °F 30.05 in Calm   5.0 mph 79% 0.00 in SCT
20:15 58.4 °F 51.9 °F 30.05 in South 1.0 mph 3.0 mph 79% 0.00 in BKN
20:30 58.1 °F 51.6 °F 30.05 in Calm   1.0 mph 79% 0.00 in BKN
20:45 57.3 °F 51.2 °F 30.06 in Calm   3.0 mph 80% 0.00 in BKN
21:00 56.7 °F 51.6 °F 30.06 in South 1.0 mph 3.0 mph 83% 0.00 in BKN
21:15 56.0 °F 51.2 °F 30.07 in SSW 1.0 mph 6.0 mph 84% 0.00 in FEW
21:30 55.6 °F 51.2 °F 30.07 in Calm   3.0 mph 85% 0.00 in FEW
21:45 55.2 °F 51.1 °F 30.07 in North 1.0 mph 8.0 mph 86% 0.00 in FEW
22:00 54.7 °F 50.6 °F 30.07 in WNW 3.0 mph 8.0 mph 86% 0.00 in FEW
22:15 54.1 °F 50.3 °F 30.07 in Calm   7.0 mph 87% 0.00 in BKN
22:30 53.4 °F 49.7 °F 30.07 in NNW 1.0 mph 9.0 mph 87% 0.00 in BKN
22:45 53.3 °F 49.5 °F 30.06 in SE 1.0 mph 5.0 mph 87% 0.00 in BKN
23:00 53.2 °F 49.4 °F 30.06 in NNW 1.0 mph 5.0 mph 87% 0.00 in BKN
23:15 52.9 °F 49.1 °F 30.06 in North 1.0 mph 9.0 mph 87% 0.00 in OVC
23:30 52.8 °F 49.0 °F 30.07 in Calm   4.0 mph 87% 0.00 in OVC
TarryTown NY Weather
Compliments of Weather Underground - 1.5 mb